地図

経路データ

SID SEASON NUMBER BASIN SUBBASIN NAME ISO_TIME NATURE LAT LON WMO_WIND WMO_PRES WMO_AGENCY TRACK_TYPE DIST2LAND LANDFALL IFLAG USA_AGENCY USA_ATCF_ID USA_LAT USA_LON USA_RECORD USA_STATUS USA_WIND USA_PRES USA_SSHS USA_R34_NE USA_R34_SE USA_R34_SW USA_R34_NW USA_R50_NE USA_R50_SE USA_R50_SW USA_R50_NW USA_R64_NE USA_R64_SE USA_R64_SW USA_R64_NW USA_POCI USA_ROCI USA_RMW USA_EYE TOKYO_LAT TOKYO_LON TOKYO_GRADE TOKYO_WIND TOKYO_PRES TOKYO_R50_DIR TOKYO_R50_LONG TOKYO_R50_SHORT TOKYO_R30_DIR TOKYO_R30_LONG TOKYO_R30_SHORT TOKYO_LAND CMA_LAT CMA_LON CMA_CAT CMA_WIND CMA_PRES HKO_LAT HKO_LON HKO_CAT HKO_WIND HKO_PRES NEWDELHI_LAT NEWDELHI_LON NEWDELHI_GRADE NEWDELHI_WIND NEWDELHI_PRES NEWDELHI_CI NEWDELHI_DP NEWDELHI_POCI REUNION_LAT REUNION_LON REUNION_TYPE REUNION_WIND REUNION_PRES REUNION_TNUM REUNION_CI REUNION_RMW REUNION_R34_NE REUNION_R34_SE REUNION_R34_SW REUNION_R34_NW REUNION_R50_NE REUNION_R50_SE REUNION_R50_SW REUNION_R50_NW REUNION_R64_NE REUNION_R64_SE REUNION_R64_SW REUNION_R64_NW BOM_LAT BOM_LON BOM_TYPE BOM_WIND BOM_PRES BOM_TNUM BOM_CI BOM_RMW BOM_R34_NE BOM_R34_SE BOM_R34_SW BOM_R34_NW BOM_R50_NE BOM_R50_SE BOM_R50_SW BOM_R50_NW BOM_R64_NE BOM_R64_SE BOM_R64_SW BOM_R64_NW BOM_ROCI BOM_POCI BOM_EYE BOM_POS_METHOD BOM_PRES_METHOD NADI_LAT NADI_LON NADI_CAT NADI_WIND NADI_PRES WELLINGTON_LAT WELLINGTON_LON WELLINGTON_WIND WELLINGTON_PRES DS824_LAT DS824_LON DS824_STAGE DS824_WIND DS824_PRES TD9636_LAT TD9636_LON TD9636_STAGE TD9636_WIND TD9636_PRES TD9635_LAT TD9635_LON TD9635_WIND TD9635_PRES TD9635_ROCI NEUMANN_LAT NEUMANN_LON NEUMANN_CLASS NEUMANN_WIND NEUMANN_PRES MLC_LAT MLC_LON MLC_CLASS MLC_WIND MLC_PRES USA_GUST BOM_GUST BOM_GUST_PER REUNION_GUST REUNION_GUST_PER USA_SEAHGT USA_SEARAD_NE USA_SEARAD_SE USA_SEARAD_SW USA_SEARAD_NW STORM_SPEED STORM_DIR
1891248N21089 1891 29 NI BB NOT_NAMED 1891-09-05 00:00:00 TS 20.9000 88.9000 main 78 78 _________O____ -1 20.9000 88.9000 TC 30 6 275
1891248N21089 1891 29 NI BB NOT_NAMED 1891-09-05 03:00:00 TS 20.9269 88.5617 main 78 67 _________PO___ -1 20.9403 88.3925 TC 30 20.9000 88.9000 1 7 277
1891248N21089 1891 29 NI BB NOT_NAMED 1891-09-05 06:00:00 TS 20.9892 88.1039 main 67 63 _________OP___ -1 21.0000 87.9000 TC 30 20.9730 88.4099 1 9 280
1891248N21089 1891 29 NI BB NOT_NAMED 1891-09-05 09:00:00 TS 21.0726 87.6452 main 59 30 _________PP___ -1 21.0924 87.4350 TC 30 21.0463 87.9256 1 8 282
1891248N21089 1891 29 NI BB NOT_NAMED 1891-09-05 12:00:00 TS 21.1607 87.2267 main 30 0 _________OP___ -1 21.2000 87.0000 TC 30 21.1213 87.4535 1 8 282
1891248N21089 1891 29 NI BB NOT_NAMED 1891-09-05 15:00:00 TS 21.2462 86.7962 main 0 0 _________PO___ -1 21.2924 86.5924 TC 30 21.2000 87.0000 1 8 283
1891248N21089 1891 29 NI BB NOT_NAMED 1891-09-05 18:00:00 TS 21.3429 86.3849 main 0 0 _________OP___ -1 21.4000 86.2000 TC 30 21.2858 86.5699 1 8 286
1891248N21089 1891 29 NI BB NOT_NAMED 1891-09-05 21:00:00 TS 21.4585 85.9771 main 0 0 _________PP___ -1 21.5275 85.7924 TC 30 21.3895 86.1618 1 8 290
1891248N21089 1891 29 NI BB NOT_NAMED 1891-09-06 00:00:00 TS 21.6117 85.5864 main 0 0 _________OP___ -1 21.7000 85.4000 TC 30 21.5234 85.7729 1 8 297
1891248N21089 1891 29 NI BB NOT_NAMED 1891-09-06 03:00:00 TS 21.8137 85.2212 main 0 0 _________PO___ -1 21.9274 85.0424 TC 30 21.7000 85.4000 1 8 304
1891248N21089 1891 29 NI BB NOT_NAMED 1891-09-06 06:00:00 TS 22.0636 84.8738 main 0 0 _________OP___ -1 22.2000 84.7000 TC 30 21.9273 85.0476 1 8 310
1891248N21089 1891 29 NI BB NOT_NAMED 1891-09-06 09:00:00 TS 22.3408 84.5322 main 0 0 _________PP___ -1 22.4849 84.3573 TC 30 22.1967 84.7071 1 9 312
1891248N21089 1891 29 NI BB NOT_NAMED 1891-09-06 12:00:00 TS 22.6464 84.1815 main 0 0 _________OP___ -1 22.8000 84.0000 TC 30 22.4929 84.3630 1 9 314
1891248N21089 1891 29 NI BB NOT_NAMED 1891-09-06 15:00:00 TS 22.9787 83.8075 main 0 0 _________PO___ -1 23.1574 83.6150 TC 30 22.8000 84.0000 1 10 313
1891248N21089 1891 29 NI BB NOT_NAMED 1891-09-06 18:00:00 TS 23.3148 83.3905 main 0 0 _________OP___ -1 23.5000 83.2000 TC 30 23.1296 83.5811 1 10 309
1891248N21089 1891 29 NI BB NOT_NAMED 1891-09-06 21:00:00 TS 23.6277 82.9432 main 0 0 _________PP___ -1 23.7950 82.7426 TC 30 23.4603 83.1437 1 10 305
1891248N21089 1891 29 NI BB NOT_NAMED 1891-09-07 00:00:00 TS 23.8804 82.5047 main 0 0 _________OP___ -1 24.0000 82.3000 TC 30 23.7609 82.7093 1 9 298
1891248N21089 1891 29 NI BB NOT_NAMED 1891-09-07 03:00:00 TS 24.0362 82.1136 main 0 0 _________PO___ -1 24.0724 81.9271 TC 30 24.0000 82.3000 1 7 290
1891248N21089 1891 29 NI BB NOT_NAMED 1891-09-07 06:00:00 TS 24.1196 81.7725 main 0 0 _________OP___ -1 24.1000 81.6000 TC 30 24.1391 81.9451 1 6 286
1891248N21089 1891 29 NI BB NOT_NAMED 1891-09-07 09:00:00 TS 24.2083 81.4593 main 0 0 _________PP___ -1 24.1998 81.3000 TC 30 24.2168 81.6186 1 6 286
1891248N21089 1891 29 NI BB NOT_NAMED 1891-09-07 12:00:00 TS 24.2805 81.1539 main 0 0 _________OP___ -1 24.3000 81.0000 TC 30 24.2611 81.3078 1 6 281
1891248N21089 1891 29 NI BB NOT_NAMED 1891-09-07 15:00:00 TS 24.3250 80.8249 main 0 0 _________PO___ -1 24.3500 80.6499 TC 30 24.3000 81.0000 1 6 280
1891248N21089 1891 29 NI BB NOT_NAMED 1891-09-07 18:00:00 TS 24.3875 80.4773 main 0 0 _________OP___ -1 24.4000 80.3000 TC 30 24.3751 80.6547 1 6 284
1891248N21089 1891 29 NI BB NOT_NAMED 1891-09-07 21:00:00 TS 24.4751 80.1450 main 0 0 _________PP___ -1 24.5000 79.9776 TC 30 24.4501 80.3125 1 6 287
1891248N21089 1891 29 NI BB NOT_NAMED 1891-09-08 00:00:00 TS 24.5626 79.8445 main 0 0 _________OP___ -1 24.6000 79.7000 TC 30 24.5251 79.9891 1 5 287
1891248N21089 1891 29 NI BB NOT_NAMED 1891-09-08 03:00:00 TS 24.6250 79.5924 main 0 0 _________PO___ -1 24.6499 79.4849 TC 30 24.6000 79.7000 1 4 286
1891248N21089 1891 29 NI BB NOT_NAMED 1891-09-08 06:00:00 TS 24.6853 79.3779 main 0 0 _________OP___ -1 24.7000 79.3000 TC 30 24.6706 79.4558 1 4 290
1891248N21089 1891 29 NI BB NOT_NAMED 1891-09-08 09:00:00 TS 24.7673 79.1699 main 0 0 _________PP___ -1 24.7925 79.0925 TC 30 24.7421 79.2473 1 4 296
1891248N21089 1891 29 NI BB NOT_NAMED 1891-09-08 12:00:00 TS 24.8588 78.9826 main 0 0 _________OP___ -1 24.9000 78.9000 TC 30 24.8176 79.0652 1 4 300
1891248N21089 1891 29 NI BB NOT_NAMED 1891-09-08 15:00:00 TS 24.9500 78.8212 main 0 0 _________PO___ -1 25.0000 78.7425 TC 30 24.9000 78.9000 1 3 304
1891248N21089 1891 29 NI BB NOT_NAMED 1891-09-08 18:00:00 TS 25.0484 78.6678 main 0 0 _________OP___ -1 25.1000 78.6000 TC 30 24.9967 78.7356 1 3 306
1891248N21089 1891 29 NI BB NOT_NAMED 1891-09-08 21:00:00 TS 25.1537 78.5175 main 0 0 _________PP___ -1 25.2075 78.4500 TC 30 25.0998 78.5850 1 3 307
1891248N21089 1891 29 NI BB NOT_NAMED 1891-09-09 00:00:00 TS 25.2515 78.3709 main 0 0 _________OP___ -1 25.3000 78.3000 TC 30 25.2030 78.4418 1 3 303
1891248N21089 1891 29 NI BB NOT_NAMED 1891-09-09 03:00:00 TS 25.3250 78.2250 main 0 0 _________PO___ -1 25.3500 78.1499 TC 30 25.3000 78.3000 1 3 297
1891248N21089 1891 29 NI BB NOT_NAMED 1891-09-09 06:00:00 TS 25.3870 78.0769 main 0 0 _________OP___ -1 25.4000 78.0000 TC 30 25.3740 78.1539 1 3 298
1891248N21089 1891 29 NI AS NOT_NAMED 1891-09-09 09:00:00 TS 25.4674 77.9324 main 0 0 _________PP___ -1 25.4925 77.8575 TC 30 25.4424 78.0072 1 3 302
1891248N21089 1891 29 NI AS NOT_NAMED 1891-09-09 12:00:00 TS 25.5573 77.7785 main 0 0 _________OP___ -1 25.6000 77.7000 TC 30 25.5146 77.8570 1 3 301
1891248N21089 1891 29 NI AS NOT_NAMED 1891-09-09 15:00:00 TS 25.6463 77.6000 main 0 0 _________PO___ -1 25.6925 77.5000 TC 30 25.6000 77.7000 1 4 301
1891248N21089 1891 29 NI AS NOT_NAMED 1891-09-09 18:00:00 TS 25.7460 77.4337 main 0 0 _________OP___ -1 25.8000 77.3000 TC 30 25.7054 77.5340 1 4 307
1891248N21089 1891 29 NI AS NOT_NAMED 1891-09-09 21:00:00 TS 25.8726 77.2713 main 0 0 _________PP___ -1 25.9400 77.1376 TC 30 25.8277 77.3605 1 4 313
1891248N21089 1891 29 NI AS NOT_NAMED 1891-09-10 00:00:00 TS 26.0074 77.1211 main 0 0 _________OP___ -1 26.1000 77.0000 TC 30 25.9611 77.1817 1 3 313
1891248N21089 1891 29 NI AS NOT_NAMED 1891-09-10 03:00:00 NR 26.1000 77.0000 main 0 __________O___ -1 TC 26.1000 77.0000 1 3 310

IBTrACS Databaseについて

本データベースは、米国NOAAが公開する1842年以降の世界の熱帯低気圧のベストトラックデータアーカイブInternational Best Track Archive for Climate Stewardship (IBTrACS)を、ウェブで閲覧しやすい形式に変換したものです。

最終更新日:2021-12-06